Oxford, Wisconsin
Current Conditions -  °F | °C
As of 1:15 PM on Thursday 23 Oct 2014 (Local Time) from KDLL Reporting Station
Moderate Rain Moderate Rain  
Wind Chill: 44°   Ceiling: 1200
Heat Index: 46°   Visibility: 3mi
Dew Point: 43°   Wind: 5mph
Humidity: 91%   Direction: 180°S
Pressure: 30.06"   Gusts: NA
Location:  43.78°N, 89.57°W
Report Text: KDLL 231815Z AUTO 18004KT 3SM RA BKN012 OVC020 08/06 A3006 RMK AO2 P0003 T00770063
Loading
Personal Weather Stations






























Interactive Weather Map
Tropical Storm Tracking
New forecast layout! Learn more

10-Day Weather Forecast

Advertisements
Track Severe Weather on mobile